createdAt,value
2023-05-19T00:02:09.335Z,8.70
2023-05-19T00:04:37.725Z,8.77
2023-05-19T00:07:05.671Z,8.66
2023-05-19T00:09:33.164Z,8.66
2023-05-19T00:12:00.650Z,8.55
2023-05-19T00:14:29.118Z,8.60
2023-05-19T00:16:58.070Z,8.53
2023-05-19T00:23:38.071Z,8.43
2023-05-19T00:26:05.401Z,8.44
2023-05-19T00:28:32.741Z,8.40
2023-05-19T00:31:01.182Z,8.42
2023-05-19T00:33:28.455Z,8.42
2023-05-19T00:35:55.769Z,8.42
2023-05-19T00:38:23.059Z,8.45
2023-05-19T00:40:50.411Z,8.56
2023-05-19T00:43:17.727Z,8.54
2023-05-19T00:45:45.107Z,8.53
2023-05-19T00:48:12.446Z,8.50
2023-05-19T00:50:40.220Z,8.42
2023-05-19T00:53:07.557Z,8.32
2023-05-19T00:55:34.878Z,8.31
2023-05-19T00:58:02.388Z,8.23
2023-05-19T01:00:30.673Z,8.19
2023-05-19T01:02:58.343Z,8.12
2023-05-19T01:05:25.892Z,8.02
2023-05-19T01:07:53.731Z,8.07
2023-05-19T01:10:21.085Z,8.05
2023-05-19T01:12:48.736Z,8.13
2023-05-19T01:15:16.115Z,8.06
2023-05-19T01:18:08.658Z,8.10
2023-05-19T01:20:38.927Z,8.08
2023-05-19T01:23:18.207Z,8.17
2023-05-19T01:25:48.206Z,8.19
2023-05-19T01:28:33.450Z,8.14
2023-05-19T01:31:00.884Z,8.05
2023-05-19T01:33:29.269Z,8.13
2023-05-19T01:35:56.614Z,8.07
2023-05-19T01:38:24.484Z,8.05
2023-05-19T01:40:51.816Z,8.11
2023-05-19T01:43:21.607Z,8.00
2023-05-19T01:45:49.028Z,8.15
2023-05-19T01:48:16.643Z,8.19
2023-05-19T01:50:45.781Z,8.27
2023-05-19T01:53:13.185Z,8.25
2023-05-19T01:55:45.392Z,8.15
2023-05-19T01:58:45.821Z,8.11
2023-05-19T02:01:46.006Z,8.15
2023-05-19T02:04:21.590Z,8.05
2023-05-19T02:06:49.041Z,8.02
2023-05-19T02:09:21.333Z,8.04
2023-05-19T02:11:54.722Z,8.03
2023-05-19T02:14:34.458Z,8.03
2023-05-19T02:17:01.749Z,7.83
2023-05-19T02:19:32.671Z,7.93
2023-05-19T02:22:00.150Z,7.91
2023-05-19T02:24:27.473Z,7.86
2023-05-19T02:26:54.823Z,7.87
2023-05-19T02:29:22.139Z,7.77
2023-05-19T02:31:51.152Z,7.78
2023-05-19T02:34:19.613Z,7.84
2023-05-19T02:36:49.815Z,7.80
2023-05-19T02:39:17.164Z,7.84
2023-05-19T02:41:44.462Z,7.90
2023-05-19T02:44:11.777Z,7.94
2023-05-19T02:46:39.224Z,7.98
2023-05-19T02:49:06.793Z,8.05
2023-05-19T02:51:34.060Z,7.98
2023-05-19T02:54:01.379Z,8.00
2023-05-19T02:56:28.788Z,7.95
2023-05-19T02:58:56.464Z,7.99
2023-05-19T03:01:23.824Z,7.91
2023-05-19T03:03:51.271Z,7.96
2023-05-19T03:06:18.640Z,7.99
2023-05-19T03:08:46.186Z,8.02
2023-05-19T03:11:13.707Z,8.11
2023-05-19T03:13:41.269Z,8.08
2023-05-19T03:16:08.654Z,8.09
2023-05-19T03:18:36.273Z,8.21
2023-05-19T03:21:03.874Z,8.27
2023-05-19T03:23:31.175Z,8.20
2023-05-19T03:25:58.494Z,8.17
2023-05-19T03:28:27.443Z,8.24
2023-05-19T03:30:54.770Z,8.27
2023-05-19T03:33:28.094Z,8.34
2023-05-19T03:35:56.863Z,8.34
2023-05-19T03:38:24.234Z,8.44
2023-05-19T03:40:57.007Z,8.50
2023-05-19T03:43:24.310Z,8.49
2023-05-19T03:45:58.927Z,8.56
2023-05-19T03:48:45.054Z,8.76
2023-05-19T03:51:32.602Z,8.83
2023-05-19T03:54:07.464Z,8.82
2023-05-19T03:56:42.046Z,8.82
2023-05-19T03:59:12.350Z,8.89
2023-05-19T04:01:39.655Z,8.86
2023-05-19T04:04:07.422Z,9.01
2023-05-19T04:06:36.336Z,9.06
2023-05-19T04:09:05.201Z,9.16
2023-05-19T04:11:32.565Z,9.31
2023-05-19T04:14:00.224Z,9.36
2023-05-19T04:16:27.628Z,9.38
2023-05-19T04:18:55.151Z,9.41
2023-05-19T04:21:22.499Z,9.47
2023-05-19T04:23:49.891Z,9.54
2023-05-19T04:26:18.150Z,9.66
2023-05-19T04:28:45.896Z,9.79
2023-05-19T04:31:14.259Z,9.80
2023-05-19T04:33:42.359Z,9.87
2023-05-19T04:36:10.793Z,9.87
2023-05-19T04:38:40.606Z,9.96
2023-05-19T04:41:11.076Z,9.97
2023-05-19T04:43:42.066Z,10.04
2023-05-19T04:46:13.255Z,10.08
2023-05-19T04:48:42.795Z,10.04
2023-05-19T04:51:10.164Z,10.11
2023-05-19T04:53:37.523Z,10.10
2023-05-19T04:56:08.536Z,10.27
2023-05-19T04:58:35.985Z,10.37
2023-05-19T05:01:03.891Z,10.47
2023-05-19T05:03:33.257Z,10.61
2023-05-19T05:06:01.409Z,10.65
2023-05-19T05:08:30.265Z,10.80
2023-05-19T05:10:57.869Z,10.90
2023-05-19T05:13:25.676Z,10.94
2023-05-19T05:15:54.274Z,11.11
2023-05-19T05:18:22.258Z,11.22
2023-05-19T05:20:50.390Z,11.50
2023-05-19T05:23:18.143Z,11.63
2023-05-19T05:25:47.808Z,11.82
2023-05-19T05:28:16.494Z,11.73
2023-05-19T05:30:45.022Z,11.81
2023-05-19T05:33:14.429Z,11.57
2023-05-19T05:35:42.330Z,11.87
2023-05-19T05:38:11.801Z,11.72
2023-05-19T05:40:40.265Z,11.91
2023-05-19T05:43:08.625Z,12.07
2023-05-19T05:45:42.009Z,12.14
2023-05-19T05:48:09.822Z,12.09
2023-05-19T05:50:37.493Z,12.41
2023-05-19T05:53:06.613Z,12.12
2023-05-19T05:55:35.788Z,12.50
2023-05-19T05:58:03.722Z,12.76
2023-05-19T06:00:31.411Z,12.53
2023-05-19T06:02:59.430Z,12.74
2023-05-19T06:05:27.211Z,12.70
2023-05-19T06:07:55.245Z,12.64
2023-05-19T06:10:26.381Z,12.72
2023-05-19T06:12:55.272Z,12.72
2023-05-19T06:15:23.545Z,12.65
2023-05-19T06:18:01.718Z,12.61
2023-05-19T06:20:29.603Z,12.68
2023-05-19T06:22:57.664Z,12.95
2023-05-19T06:25:27.488Z,12.83
2023-05-19T06:27:55.962Z,12.66
2023-05-19T06:30:24.222Z,12.86
2023-05-19T06:33:05.752Z,13.23
2023-05-19T06:35:33.468Z,13.38
2023-05-19T06:38:01.404Z,13.25
2023-05-19T06:40:28.795Z,13.40
2023-05-19T06:42:56.311Z,13.63
2023-05-19T06:45:35.010Z,13.78
2023-05-19T06:48:04.387Z,13.83
2023-05-19T06:50:32.095Z,13.95
2023-05-19T06:52:59.536Z,14.23
2023-05-19T06:55:27.001Z,14.39
2023-05-19T06:57:54.295Z,14.37
2023-05-19T07:00:23.801Z,14.34
2023-05-19T07:02:53.299Z,14.44
2023-05-19T07:05:21.080Z,14.62
2023-05-19T07:07:53.068Z,14.38
2023-05-19T07:10:24.581Z,14.57
2023-05-19T07:12:52.816Z,14.63
2023-05-19T07:15:23.014Z,14.73
2023-05-19T07:17:50.483Z,14.92
2023-05-19T07:20:18.007Z,14.98
2023-05-19T07:22:45.347Z,15.20
2023-05-19T07:25:12.668Z,15.10
2023-05-19T07:27:43.015Z,15.40
2023-05-19T07:30:11.159Z,15.40
2023-05-19T07:32:38.608Z,15.43
2023-05-19T07:35:06.085Z,15.58
2023-05-19T07:37:33.404Z,15.65
2023-05-19T07:40:00.731Z,15.77
2023-05-19T07:42:28.019Z,15.89
2023-05-19T07:44:55.392Z,16.10
2023-05-19T07:47:22.695Z,15.86
2023-05-19T07:49:51.811Z,16.10
2023-05-19T07:52:19.354Z,16.13
2023-05-19T07:54:46.791Z,16.13
2023-05-19T07:57:14.607Z,16.25
2023-05-19T07:59:41.950Z,16.37
2023-05-19T08:02:09.296Z,16.34
2023-05-19T08:04:36.658Z,16.48
2023-05-19T08:07:04.092Z,16.40
2023-05-19T08:09:31.402Z,16.30
2023-05-19T08:11:58.691Z,16.44
2023-05-19T08:14:27.072Z,16.53
2023-05-19T08:16:54.399Z,16.75
2023-05-19T08:19:21.912Z,16.71
2023-05-19T08:21:49.735Z,16.91
2023-05-19T08:24:17.235Z,16.59
2023-05-19T08:26:44.592Z,17.05
2023-05-19T08:29:12.133Z,17.08
2023-05-19T08:31:39.518Z,17.31
2023-05-19T08:34:06.922Z,17.56
2023-05-19T08:36:34.549Z,17.73
2023-05-19T08:39:04.563Z,17.26
2023-05-19T08:41:31.846Z,17.52
2023-05-19T08:43:59.351Z,17.76
2023-05-19T08:46:27.001Z,18.04
2023-05-19T08:48:55.401Z,18.21
2023-05-19T08:51:39.051Z,17.69
2023-05-19T08:54:14.688Z,18.09
2023-05-19T08:56:45.592Z,18.27
2023-05-19T08:59:14.128Z,18.31
2023-05-19T09:01:45.781Z,18.35
2023-05-19T09:04:13.486Z,18.63
2023-05-19T09:06:42.501Z,18.80
2023-05-19T09:09:10.282Z,18.70
2023-05-19T09:11:37.875Z,18.86
2023-05-19T09:14:07.651Z,19.05
2023-05-19T09:16:35.306Z,18.78
2023-05-19T09:19:02.894Z,18.73
2023-05-19T09:21:32.974Z,18.79
2023-05-19T09:24:06.844Z,18.76
2023-05-19T09:26:41.567Z,18.99
2023-05-19T09:29:15.648Z,19.05
2023-05-19T09:31:50.406Z,19.30
2023-05-19T09:34:18.063Z,19.36
2023-05-19T09:36:49.471Z,19.25
2023-05-19T09:39:17.246Z,19.55
2023-05-19T09:41:44.973Z,19.58
2023-05-19T09:44:21.322Z,19.90
2023-05-19T09:46:52.817Z,20.17
2023-05-19T09:49:29.727Z,20.30
2023-05-19T09:51:57.846Z,20.40
2023-05-19T09:54:25.772Z,20.19
2023-05-19T09:56:59.094Z,20.19
2023-05-19T09:59:27.259Z,20.19
2023-05-19T10:01:56.946Z,20.67
2023-05-19T10:04:26.829Z,20.57
2023-05-19T10:06:55.260Z,20.66
2023-05-19T10:09:26.564Z,20.68
2023-05-19T10:11:54.884Z,20.81
2023-05-19T10:14:26.659Z,21.01
2023-05-19T10:16:58.661Z,21.18
2023-05-19T10:19:29.373Z,20.91
2023-05-19T10:21:57.027Z,20.91
2023-05-19T10:24:24.372Z,20.70
2023-05-19T10:26:55.685Z,20.91
2023-05-19T10:29:28.368Z,21.33
2023-05-19T10:31:56.337Z,21.68
2023-05-19T10:34:34.804Z,21.75
2023-05-19T10:37:10.866Z,21.88
2023-05-19T10:39:38.144Z,21.75
2023-05-19T10:42:15.859Z,21.78
2023-05-19T10:45:21.385Z,21.95
2023-05-19T10:47:50.947Z,21.86
2023-05-19T10:50:18.379Z,22.20
2023-05-19T10:52:45.752Z,22.21
2023-05-19T10:55:17.740Z,22.13
2023-05-19T10:57:56.788Z,22.45
2023-05-19T11:00:28.055Z,22.74
2023-05-19T11:02:57.609Z,22.98
2023-05-19T11:05:29.042Z,23.14
2023-05-19T11:08:02.234Z,23.02
2023-05-19T11:10:29.841Z,23.29
2023-05-19T11:15:28.362Z,23.43
2023-05-19T11:17:55.999Z,23.44
2023-05-19T11:20:27.259Z,23.42
2023-05-19T11:23:03.593Z,23.05
2023-05-19T11:25:43.292Z,23.15
2023-05-19T11:28:12.190Z,23.34
2023-05-19T11:30:41.487Z,23.18
2023-05-19T11:33:09.025Z,23.54
2023-05-19T11:35:37.420Z,23.27
2023-05-19T11:38:05.406Z,23.61
2023-05-19T11:40:32.944Z,23.81
2023-05-19T11:43:01.916Z,24.03
2023-05-19T11:45:31.359Z,24.17
2023-05-19T11:48:02.492Z,23.71
2023-05-19T11:50:33.666Z,23.48
2023-05-19T11:53:01.490Z,23.77
2023-05-19T11:55:29.789Z,23.91
2023-05-19T12:00:31.265Z,24.20
2023-05-19T12:02:58.715Z,23.87
2023-05-19T12:05:26.591Z,24.28
2023-05-19T12:07:54.042Z,24.33
2023-05-19T12:10:25.008Z,24.23
2023-05-19T12:12:53.319Z,24.73
2023-05-19T12:15:23.968Z,24.74
2023-05-19T12:17:58.891Z,24.70
2023-05-19T12:20:26.868Z,24.94
2023-05-19T12:22:57.383Z,25.13
2023-05-19T12:25:24.878Z,25.36
2023-05-19T12:27:53.251Z,25.06
2023-05-19T12:30:25.129Z,24.81
2023-05-19T12:32:53.960Z,23.94
2023-05-19T12:35:26.010Z,24.48
2023-05-19T12:37:53.406Z,24.88
2023-05-19T12:40:20.748Z,25.24
2023-05-19T12:42:48.809Z,25.04
2023-05-19T12:45:16.091Z,25.19
2023-05-19T12:47:43.418Z,25.21
2023-05-19T12:50:11.110Z,25.32
2023-05-19T12:52:45.399Z,25.29
2023-05-19T12:55:12.890Z,25.56
2023-05-19T12:57:41.565Z,25.50
2023-05-19T13:00:14.798Z,25.67
2023-05-19T13:03:15.989Z,25.45
2023-05-19T13:05:44.422Z,25.61
2023-05-19T13:08:13.118Z,25.64
2023-05-19T13:10:42.334Z,25.55
2023-05-19T13:13:09.858Z,25.65
2023-05-19T13:15:38.381Z,25.15
2023-05-19T13:18:06.855Z,25.61
2023-05-19T13:20:34.708Z,25.73
2023-05-19T13:23:02.468Z,26.00
2023-05-19T13:25:29.755Z,26.01
2023-05-19T13:27:59.343Z,26.26
2023-05-19T13:30:27.071Z,26.13
2023-05-19T13:32:54.471Z,26.12
2023-05-19T13:35:21.884Z,26.27
2023-05-19T13:37:49.601Z,26.33
2023-05-19T13:40:17.562Z,26.24
2023-05-19T13:42:45.411Z,26.58
2023-05-19T13:45:12.729Z,26.66
2023-05-19T13:47:42.304Z,26.49
2023-05-19T13:50:12.378Z,26.30
2023-05-19T13:52:39.790Z,26.18
2023-05-19T13:55:07.688Z,26.06
2023-05-19T13:57:35.569Z,26.08
2023-05-19T14:00:04.736Z,26.61
2023-05-19T14:02:41.281Z,26.50
2023-05-19T14:05:08.860Z,26.96
2023-05-19T14:07:36.173Z,27.25
2023-05-19T14:10:05.666Z,27.90
2023-05-19T14:12:41.579Z,28.56
2023-05-19T14:15:14.872Z,29.18
2023-05-19T14:17:42.279Z,29.91
2023-05-19T14:20:10.125Z,29.36
2023-05-19T14:22:37.422Z,30.34
2023-05-19T14:25:05.310Z,30.94
2023-05-19T14:27:32.688Z,31.10
2023-05-19T14:30:00.009Z,31.30
2023-05-19T14:32:30.089Z,31.11
2023-05-19T14:34:57.775Z,31.54
2023-05-19T14:37:28.831Z,31.44
2023-05-19T14:39:57.611Z,31.74
2023-05-19T14:42:25.123Z,32.04
2023-05-19T14:44:52.447Z,31.54
2023-05-19T14:47:19.732Z,31.89
2023-05-19T14:49:47.220Z,31.35
2023-05-19T14:52:14.531Z,31.81
2023-05-19T14:54:41.841Z,30.89
2023-05-19T14:57:09.163Z,31.77
2023-05-19T14:59:39.329Z,31.78
2023-05-19T15:02:06.672Z,31.69
2023-05-19T15:04:33.931Z,31.95
2023-05-19T15:09:31.809Z,31.26
2023-05-19T15:12:01.326Z,32.25
2023-05-19T15:14:30.422Z,32.08
2023-05-19T15:16:58.707Z,31.80
2023-05-19T15:19:26.331Z,31.32
2023-05-19T15:21:53.849Z,30.87
2023-05-19T15:24:21.324Z,31.05
2023-05-19T15:26:48.751Z,31.36
2023-05-19T15:29:16.053Z,31.95
2023-05-19T15:31:43.495Z,31.87
2023-05-19T15:34:10.882Z,31.84
2023-05-19T15:36:38.220Z,31.29
2023-05-19T15:39:06.616Z,31.56
2023-05-19T15:41:33.991Z,31.23
2023-05-19T15:44:02.434Z,30.61
2023-05-19T15:46:30.007Z,30.90
2023-05-19T15:48:57.317Z,31.26
2023-05-19T15:51:24.871Z,31.47
2023-05-19T15:53:52.477Z,30.95
2023-05-19T15:56:19.768Z,31.41
2023-05-19T15:58:47.259Z,30.89
2023-05-19T16:01:15.301Z,30.95
2023-05-19T16:03:43.653Z,31.58
2023-05-19T16:06:11.320Z,31.12
2023-05-19T16:08:38.656Z,30.66
2023-05-19T16:11:06.063Z,31.14
2023-05-19T16:13:34.021Z,31.45
2023-05-19T16:16:01.676Z,30.63
2023-05-19T16:18:31.972Z,29.38
2023-05-19T16:20:59.332Z,27.77
2023-05-19T16:23:27.536Z,26.40
2023-05-19T16:25:54.948Z,26.02
2023-05-19T16:28:24.775Z,25.84
2023-05-19T16:30:52.479Z,25.86
2023-05-19T16:33:19.802Z,25.66
2023-05-19T16:35:47.218Z,25.80
2023-05-19T16:38:14.592Z,25.73
2023-05-19T16:40:41.936Z,25.68
2023-05-19T16:43:09.289Z,25.54
2023-05-19T16:45:36.620Z,25.48
2023-05-19T16:48:04.094Z,25.17
2023-05-19T16:50:31.482Z,25.23
2023-05-19T16:52:58.816Z,25.15
2023-05-19T16:55:26.934Z,25.04
2023-05-19T16:57:54.336Z,24.94
2023-05-19T17:00:21.734Z,24.88
2023-05-19T17:02:49.234Z,24.59
2023-05-19T17:05:16.682Z,24.46
2023-05-19T17:07:44.000Z,24.46
2023-05-19T17:10:11.422Z,24.46
2023-05-19T17:12:38.740Z,24.26
2023-05-19T17:15:06.612Z,24.11
2023-05-19T17:17:34.000Z,24.08
2023-05-19T17:20:01.484Z,23.92
2023-05-19T17:22:30.241Z,23.96
2023-05-19T17:24:57.817Z,23.76
2023-05-19T17:27:25.193Z,23.75
2023-05-19T17:29:52.634Z,23.56
2023-05-19T17:32:25.750Z,23.31
2023-05-19T17:34:53.244Z,23.18
2023-05-19T17:37:23.555Z,23.27
2023-05-19T17:39:51.000Z,23.07
2023-05-19T17:42:18.364Z,22.90
2023-05-19T17:44:45.847Z,22.72
2023-05-19T17:47:13.206Z,22.61
2023-05-19T17:49:40.528Z,22.48
2023-05-19T17:52:08.461Z,22.44
2023-05-19T17:54:36.029Z,22.21
2023-05-19T17:57:03.671Z,22.06
2023-05-19T17:59:31.381Z,21.93
2023-05-19T18:01:59.025Z,21.75
2023-05-19T18:04:26.678Z,21.65
2023-05-19T18:06:54.059Z,21.56
2023-05-19T18:09:21.448Z,21.41
2023-05-19T18:11:48.758Z,21.39
2023-05-19T18:14:16.085Z,21.33
2023-05-19T18:16:43.734Z,21.21
2023-05-19T18:19:11.326Z,21.20
2023-05-19T18:21:38.729Z,21.04
2023-05-19T18:24:07.122Z,20.89
2023-05-19T18:26:34.422Z,20.81
2023-05-19T18:29:04.886Z,20.65
2023-05-19T18:31:32.616Z,20.48
2023-05-19T18:33:59.948Z,20.35
2023-05-19T18:36:27.318Z,20.30
2023-05-19T18:38:55.190Z,20.24
2023-05-19T18:41:22.922Z,20.22
2023-05-19T18:43:50.222Z,20.15
2023-05-19T18:46:17.978Z,20.07
2023-05-19T18:48:45.399Z,19.78
2023-05-19T18:51:15.764Z,19.70
2023-05-19T18:53:43.102Z,19.65
2023-05-19T18:56:15.269Z,19.43
2023-05-19T18:58:42.574Z,19.48
2023-05-19T19:01:10.020Z,19.46
2023-05-19T19:03:37.434Z,19.42
2023-05-19T19:06:04.787Z,19.38
2023-05-19T19:08:32.112Z,19.21
2023-05-19T19:11:01.116Z,19.26
2023-05-19T19:13:28.487Z,19.34
2023-05-19T19:15:58.805Z,19.20
2023-05-19T19:18:26.766Z,19.11
2023-05-19T19:20:54.980Z,19.12
2023-05-19T19:23:22.319Z,19.04
2023-05-19T19:25:50.384Z,18.96
2023-05-19T19:28:17.714Z,18.89
2023-05-19T19:30:45.937Z,18.65
2023-05-19T19:33:13.315Z,18.71
2023-05-19T19:35:41.263Z,18.61
2023-05-19T19:38:08.547Z,18.42
2023-05-19T19:40:36.324Z,18.32
2023-05-19T19:43:04.169Z,18.28
2023-05-19T19:45:32.268Z,18.18
2023-05-19T19:47:59.655Z,18.11
2023-05-19T19:50:27.349Z,18.08
2023-05-19T19:52:54.728Z,17.93
2023-05-19T19:55:22.018Z,17.97
2023-05-19T19:57:51.128Z,17.86
2023-05-19T20:00:18.594Z,17.84
2023-05-19T20:05:19.049Z,17.65
2023-05-19T20:07:46.360Z,17.59
2023-05-19T20:10:13.767Z,17.43
2023-05-19T20:12:41.585Z,17.42
2023-05-19T20:15:09.481Z,17.35
2023-05-19T20:17:37.275Z,17.26
2023-05-19T20:20:09.904Z,17.29
2023-05-19T20:22:37.204Z,17.16
2023-05-19T20:25:04.972Z,17.13
2023-05-19T20:27:32.412Z,16.92
2023-05-19T20:29:59.764Z,16.82
2023-05-19T20:32:27.124Z,16.93
2023-05-19T20:34:54.444Z,16.81
2023-05-19T20:37:22.408Z,16.75
2023-05-19T20:39:49.810Z,16.72
2023-05-19T20:42:17.154Z,16.63
2023-05-19T20:44:44.527Z,16.51
2023-05-19T20:47:11.919Z,16.46
2023-05-19T20:49:39.277Z,16.35
2023-05-19T20:52:06.805Z,16.37
2023-05-19T20:54:34.062Z,16.36
2023-05-19T20:57:06.345Z,16.20
2023-05-19T20:59:33.702Z,16.18
2023-05-19T21:02:01.238Z,16.08
2023-05-19T21:04:28.557Z,16.15
2023-05-19T21:06:56.052Z,16.06
2023-05-19T21:09:23.343Z,16.00
2023-05-19T21:11:53.207Z,16.11
2023-05-19T21:14:23.448Z,16.14
2023-05-19T21:16:51.422Z,16.17
2023-05-19T21:19:20.630Z,16.11
2023-05-19T21:21:50.477Z,16.05
2023-05-19T21:24:17.855Z,16.18
2023-05-19T21:26:45.203Z,16.11
2023-05-19T21:29:12.568Z,16.08
2023-05-19T21:31:39.970Z,16.06
2023-05-19T21:34:07.832Z,16.01
2023-05-19T21:36:35.345Z,16.03
2023-05-19T21:39:03.743Z,15.99
2023-05-19T21:41:33.720Z,15.99
2023-05-19T21:44:01.110Z,15.85
2023-05-19T21:46:29.173Z,15.75
2023-05-19T21:48:56.790Z,15.70
2023-05-19T21:51:24.137Z,15.63
2023-05-19T21:53:51.429Z,15.64
2023-05-19T21:56:18.762Z,15.75
2023-05-19T21:58:46.120Z,15.77
2023-05-19T22:01:14.384Z,15.70
2023-05-19T22:03:42.071Z,15.85
2023-05-19T22:06:09.400Z,15.99
2023-05-19T22:08:36.747Z,15.92
2023-05-19T22:11:04.374Z,15.83
2023-05-19T22:13:32.041Z,15.87
2023-05-19T22:15:59.549Z,15.76
2023-05-19T22:18:26.926Z,15.81
2023-05-19T22:20:54.240Z,15.83
2023-05-19T22:23:21.674Z,15.66
2023-05-19T22:25:49.062Z,15.44
2023-05-19T22:28:16.337Z,15.42
2023-05-19T22:30:44.200Z,15.42
2023-05-19T22:33:11.970Z,15.41
2023-05-19T22:35:39.348Z,15.40
2023-05-19T22:38:08.895Z,15.24
2023-05-19T22:40:37.917Z,15.23
2023-05-19T22:43:05.212Z,15.10
2023-05-19T22:45:33.814Z,14.97
2023-05-19T22:48:01.487Z,15.10
2023-05-19T22:50:28.842Z,15.03
2023-05-19T22:52:56.279Z,15.02
2023-05-19T22:55:23.569Z,14.96
2023-05-19T22:57:51.155Z,14.84
2023-05-19T23:00:20.786Z,14.86
2023-05-19T23:02:48.113Z,14.76
2023-05-19T23:05:15.755Z,14.79
2023-05-19T23:07:43.112Z,14.81
2023-05-19T23:10:10.814Z,14.89
2023-05-19T23:12:38.204Z,14.86
2023-05-19T23:15:06.972Z,14.78
2023-05-19T23:17:34.326Z,14.66
2023-05-19T23:20:01.838Z,14.62
2023-05-19T23:22:29.118Z,14.55
2023-05-19T23:24:56.525Z,14.45
2023-05-19T23:27:23.861Z,14.55
2023-05-19T23:29:51.146Z,14.39
2023-05-19T23:32:18.453Z,14.40
2023-05-19T23:34:47.183Z,14.49
2023-05-19T23:37:14.479Z,14.58
2023-05-19T23:39:41.988Z,14.58
2023-05-19T23:42:09.303Z,14.54
2023-05-19T23:44:36.683Z,14.46
2023-05-19T23:47:04.110Z,14.23
2023-05-19T23:49:31.468Z,14.18
2023-05-19T23:51:58.869Z,14.02
2023-05-19T23:54:26.743Z,13.93
2023-05-19T23:56:55.800Z,13.85
2023-05-19T23:59:23.323Z,13.67
